sensor_id;sensor_type;location;lat;lon;timestamp;P1;durP1;ratioP1;P2;durP2;ratioP2
3943;SDS011;1986;52.546;13.428;2022-07-04T00:01:43;28.60;;;26.60;;
3943;SDS011;1986;52.546;13.428;2022-07-04T00:04:10;27.00;;;25.10;;
3943;SDS011;1986;52.546;13.428;2022-07-04T00:06:37;26.70;;;24.90;;
3943;SDS011;1986;52.546;13.428;2022-07-04T00:09:05;27.40;;;25.17;;
3943;SDS011;1986;52.546;13.428;2022-07-04T00:11:32;26.87;;;25.07;;
3943;SDS011;1986;52.546;13.428;2022-07-04T00:13:59;25.90;;;24.20;;
3943;SDS011;1986;52.546;13.428;2022-07-04T00:16:26;25.97;;;24.17;;
3943;SDS011;1986;52.546;13.428;2022-07-04T00:18:53;25.40;;;23.70;;
3943;SDS011;1986;52.546;13.428;2022-07-04T00:21:20;26.37;;;24.57;;
3943;SDS011;1986;52.546;13.428;2022-07-04T00:23:47;25.00;;;23.30;;
3943;SDS011;1986;52.546;13.428;2022-07-04T00:26:17;25.10;;;23.40;;
3943;SDS011;1986;52.546;13.428;2022-07-04T00:28:44;24.60;;;23.00;;
3943;SDS011;1986;52.546;13.428;2022-07-04T00:31:12;24.03;;;22.43;;
3943;SDS011;1986;52.546;13.428;2022-07-04T00:33:39;27.33;;;24.70;;
3943;SDS011;1986;52.546;13.428;2022-07-04T00:36:07;24.60;;;22.80;;
3943;SDS011;1986;52.546;13.428;2022-07-04T00:38:34;23.67;;;21.97;;
3943;SDS011;1986;52.546;13.428;2022-07-04T00:41:01;23.00;;;21.50;;
3943;SDS011;1986;52.546;13.428;2022-07-04T00:43:29;23.13;;;21.63;;
3943;SDS011;1986;52.546;13.428;2022-07-04T00:45:56;23.10;;;21.60;;
3943;SDS011;1986;52.546;13.428;2022-07-04T00:48:25;24.87;;;22.90;;
3943;SDS011;1986;52.546;13.428;2022-07-04T00:50:52;23.57;;;22.00;;
3943;SDS011;1986;52.546;13.428;2022-07-04T00:53:20;23.30;;;21.80;;
3943;SDS011;1986;52.546;13.428;2022-07-04T00:55:49;22.07;;;20.67;;
3943;SDS011;1986;52.546;13.428;2022-07-04T00:58:19;21.77;;;20.37;;
3943;SDS011;1986;52.546;13.428;2022-07-04T01:00:49;21.43;;;20.07;;
3943;SDS011;1986;52.546;13.428;2022-07-04T01:03:16;20.40;;;19.20;;
3943;SDS011;1986;52.546;13.428;2022-07-04T01:05:43;22.77;;;21.10;;
3943;SDS011;1986;52.546;13.428;2022-07-04T01:08:10;23.87;;;21.97;;
3943;SDS011;1986;52.546;13.428;2022-07-04T01:10:37;20.80;;;19.60;;
3943;SDS011;1986;52.546;13.428;2022-07-04T01:13:04;22.70;;;21.10;;
3943;SDS011;1986;52.546;13.428;2022-07-04T01:15:31;21.57;;;20.27;;
3943;SDS011;1986;52.546;13.428;2022-07-04T01:18:03;20.93;;;19.73;;
3943;SDS011;1986;52.546;13.428;2022-07-04T01:20:35;21.03;;;19.83;;
3943;SDS011;1986;52.546;13.428;2022-07-04T01:23:02;20.87;;;19.67;;
3943;SDS011;1986;52.546;13.428;2022-07-04T01:25:30;21.03;;;19.83;;
3943;SDS011;1986;52.546;13.428;2022-07-04T01:27:58;37.67;;;22.00;;
3943;SDS011;1986;52.546;13.428;2022-07-04T01:30:25;20.10;;;19.00;;
3943;SDS011;1986;52.546;13.428;2022-07-04T01:32:52;19.97;;;18.87;;
3943;SDS011;1986;52.546;13.428;2022-07-04T01:35:19;21.13;;;19.90;;
3943;SDS011;1986;52.546;13.428;2022-07-04T01:37:49;19.10;;;18.10;;
3943;SDS011;1986;52.546;13.428;2022-07-04T01:40:18;20.00;;;18.90;;
3943;SDS011;1986;52.546;13.428;2022-07-04T01:42:45;20.70;;;19.47;;
3943;SDS011;1986;52.546;13.428;2022-07-04T01:45:12;20.17;;;18.97;;
3943;SDS011;1986;52.546;13.428;2022-07-04T01:47:39;20.90;;;19.30;;
3943;SDS011;1986;52.546;13.428;2022-07-04T01:50:08;20.60;;;19.00;;
3943;SDS011;1986;52.546;13.428;2022-07-04T01:52:37;18.37;;;17.40;;
3943;SDS011;1986;52.546;13.428;2022-07-04T01:55:06;19.10;;;18.07;;
3943;SDS011;1986;52.546;13.428;2022-07-04T01:57:35;18.80;;;17.80;;
3943;SDS011;1986;52.546;13.428;2022-07-04T02:00:03;28.13;;;17.70;;
3943;SDS011;1986;52.546;13.428;2022-07-04T02:02:48;18.63;;;17.63;;
3943;SDS011;1986;52.546;13.428;2022-07-04T02:05:15;19.43;;;18.43;;
3943;SDS011;1986;52.546;13.428;2022-07-04T02:07:42;17.57;;;16.50;;
3943;SDS011;1986;52.546;13.428;2022-07-04T02:10:11;17.23;;;16.33;;
3943;SDS011;1986;52.546;13.428;2022-07-04T02:12:38;17.70;;;16.70;;
3943;SDS011;1986;52.546;13.428;2022-07-04T02:15:22;18.43;;;17.40;;
3943;SDS011;1986;52.546;13.428;2022-07-04T02:17:49;18.43;;;16.87;;
3943;SDS011;1986;52.546;13.428;2022-07-04T02:20:17;16.10;;;15.30;;
3943;SDS011;1986;52.546;13.428;2022-07-04T02:22:46;15.40;;;14.70;;
3943;SDS011;1986;52.546;13.428;2022-07-04T02:25:18;13.33;;;12.83;;
3943;SDS011;1986;52.546;13.428;2022-07-04T02:27:45;13.57;;;12.97;;
3943;SDS011;1986;52.546;13.428;2022-07-04T02:30:12;14.13;;;13.53;;
3943;SDS011;1986;52.546;13.428;2022-07-04T02:32:40;12.50;;;12.10;;
3943;SDS011;1986;52.546;13.428;2022-07-04T02:35:07;12.10;;;11.70;;
3943;SDS011;1986;52.546;13.428;2022-07-04T02:37:35;13.30;;;12.70;;
3943;SDS011;1986;52.546;13.428;2022-07-04T02:40:02;12.83;;;12.23;;
3943;SDS011;1986;52.546;13.428;2022-07-04T02:42:31;12.37;;;11.67;;
3943;SDS011;1986;52.546;13.428;2022-07-04T02:44:59;11.63;;;10.93;;
3943;SDS011;1986;52.546;13.428;2022-07-04T02:47:26;9.67;;;9.47;;
3943;SDS011;1986;52.546;13.428;2022-07-04T02:49:53;11.50;;;11.00;;
3943;SDS011;1986;52.546;13.428;2022-07-04T02:52:20;12.33;;;11.40;;
3943;SDS011;1986;52.546;13.428;2022-07-04T02:54:47;11.30;;;10.80;;
3943;SDS011;1986;52.546;13.428;2022-07-04T02:57:15;11.57;;;10.87;;
3943;SDS011;1986;52.546;13.428;2022-07-04T02:59:44;9.77;;;9.17;;
3943;SDS011;1986;52.546;13.428;2022-07-04T03:02:11;11.07;;;10.57;;
3943;SDS011;1986;52.546;13.428;2022-07-04T03:04:38;9.40;;;9.10;;
3943;SDS011;1986;52.546;13.428;2022-07-04T03:07:05;10.10;;;9.50;;
3943;SDS011;1986;52.546;13.428;2022-07-04T03:09:32;8.93;;;8.73;;
3943;SDS011;1986;52.546;13.428;2022-07-04T03:11:59;9.93;;;9.53;;
3943;SDS011;1986;52.546;13.428;2022-07-04T03:14:26;9.37;;;9.07;;
3943;SDS011;1986;52.546;13.428;2022-07-04T03:16:55;10.60;;;10.20;;
3943;SDS011;1986;52.546;13.428;2022-07-04T03:19:22;9.13;;;8.83;;
3943;SDS011;1986;52.546;13.428;2022-07-04T03:21:49;10.50;;;10.10;;
3943;SDS011;1986;52.546;13.428;2022-07-04T03:24:16;10.90;;;10.50;;
3943;SDS011;1986;52.546;13.428;2022-07-04T03:26:42;12.23;;;11.83;;
3943;SDS011;1986;52.546;13.428;2022-07-04T03:29:09;11.23;;;10.70;;
3943;SDS011;1986;52.546;13.428;2022-07-04T03:31:36;10.40;;;9.93;;
3943;SDS011;1986;52.546;13.428;2022-07-04T03:34:05;11.50;;;10.90;;
3943;SDS011;1986;52.546;13.428;2022-07-04T03:36:32;9.73;;;9.43;;
3943;SDS011;1986;52.546;13.428;2022-07-04T03:39:00;10.43;;;10.03;;
3943;SDS011;1986;52.546;13.428;2022-07-04T03:41:31;9.13;;;8.83;;
3943;SDS011;1986;52.546;13.428;2022-07-04T03:43:58;10.50;;;9.90;;
3943;SDS011;1986;52.546;13.428;2022-07-04T03:46:25;8.70;;;8.50;;
3943;SDS011;1986;52.546;13.428;2022-07-04T03:48:51;11.80;;;11.13;;
3943;SDS011;1986;52.546;13.428;2022-07-04T03:51:21;9.10;;;8.90;;
3943;SDS011;1986;52.546;13.428;2022-07-04T03:53:48;10.97;;;10.47;;
3943;SDS011;1986;52.546;13.428;2022-07-04T03:56:16;11.07;;;10.47;;
3943;SDS011;1986;52.546;13.428;2022-07-04T03:58:43;9.10;;;8.90;;
3943;SDS011;1986;52.546;13.428;2022-07-04T04:01:13;9.80;;;9.60;;
3943;SDS011;1986;52.546;13.428;2022-07-04T04:03:42;9.13;;;8.93;;
3943;SDS011;1986;52.546;13.428;2022-07-04T04:06:29;12.60;;;12.00;;
3943;SDS011;1986;52.546;13.428;2022-07-04T04:08:56;12.00;;;11.30;;
3943;SDS011;1986;52.546;13.428;2022-07-04T04:11:24;12.07;;;11.50;;
3943;SDS011;1986;52.546;13.428;2022-07-04T04:13:51;13.90;;;12.40;;
3943;SDS011;1986;52.546;13.428;2022-07-04T04:16:18;12.57;;;11.87;;
3943;SDS011;1986;52.546;13.428;2022-07-04T04:18:45;10.17;;;9.87;;
3943;SDS011;1986;52.546;13.428;2022-07-04T04:21:12;13.50;;;12.60;;
3943;SDS011;1986;52.546;13.428;2022-07-04T04:23:40;14.70;;;13.73;;
3943;SDS011;1986;52.546;13.428;2022-07-04T04:26:07;10.73;;;10.33;;
3943;SDS011;1986;52.546;13.428;2022-07-04T04:28:34;11.90;;;11.40;;
3943;SDS011;1986;52.546;13.428;2022-07-04T04:31:01;12.70;;;11.80;;
3943;SDS011;1986;52.546;13.428;2022-07-04T04:33:28;13.67;;;12.87;;
3943;SDS011;1986;52.546;13.428;2022-07-04T04:35:54;14.60;;;13.70;;
3943;SDS011;1986;52.546;13.428;2022-07-04T04:38:21;27.13;;;12.60;;
3943;SDS011;1986;52.546;13.428;2022-07-04T04:40:50;13.23;;;12.50;;
3943;SDS011;1986;52.546;13.428;2022-07-04T04:43:19;13.37;;;12.73;;
3943;SDS011;1986;52.546;13.428;2022-07-04T04:45:48;13.13;;;12.60;;
3943;SDS011;1986;52.546;13.428;2022-07-04T04:48:15;15.03;;;14.03;;
3943;SDS011;1986;52.546;13.428;2022-07-04T04:50:42;14.13;;;13.53;;
3943;SDS011;1986;52.546;13.428;2022-07-04T04:53:09;17.07;;;15.93;;
3943;SDS011;1986;52.546;13.428;2022-07-04T04:55:36;12.50;;;12.00;;
3943;SDS011;1986;52.546;13.428;2022-07-04T04:58:04;16.13;;;15.00;;
3943;SDS011;1986;52.546;13.428;2022-07-04T05:00:31;13.20;;;12.80;;
3943;SDS011;1986;52.546;13.428;2022-07-04T05:03:00;18.27;;;16.90;;
3943;SDS011;1986;52.546;13.428;2022-07-04T05:05:27;17.60;;;16.40;;
3943;SDS011;1986;52.546;13.428;2022-07-04T05:07:54;16.00;;;15.10;;
3943;SDS011;1986;52.546;13.428;2022-07-04T05:10:21;15.17;;;14.40;;
3943;SDS011;1986;52.546;13.428;2022-07-04T05:12:48;16.77;;;14.97;;
3943;SDS011;1986;52.546;13.428;2022-07-04T05:15:17;14.07;;;13.27;;
3943;SDS011;1986;52.546;13.428;2022-07-04T05:17:44;13.10;;;12.70;;
3943;SDS011;1986;52.546;13.428;2022-07-04T05:20:11;15.80;;;15.10;;
3943;SDS011;1986;52.546;13.428;2022-07-04T05:22:40;16.47;;;15.63;;
3943;SDS011;1986;52.546;13.428;2022-07-04T05:25:07;16.40;;;15.50;;
3943;SDS011;1986;52.546;13.428;2022-07-04T05:27:35;16.27;;;15.57;;
3943;SDS011;1986;52.546;13.428;2022-07-04T05:30:04;20.87;;;19.03;;
3943;SDS011;1986;52.546;13.428;2022-07-04T05:32:37;14.87;;;14.27;;
3943;SDS011;1986;52.546;13.428;2022-07-04T05:35:05;17.47;;;16.63;;
3943;SDS011;1986;52.546;13.428;2022-07-04T05:37:37;17.17;;;16.20;;
3943;SDS011;1986;52.546;13.428;2022-07-04T05:40:13;18.13;;;16.63;;
3943;SDS011;1986;52.546;13.428;2022-07-04T05:42:42;16.70;;;15.70;;
3943;SDS011;1986;52.546;13.428;2022-07-04T05:45:12;15.93;;;15.23;;
3943;SDS011;1986;52.546;13.428;2022-07-04T05:47:54;15.07;;;14.37;;
3943;SDS011;1986;52.546;13.428;2022-07-04T05:50:21;14.57;;;13.90;;
3943;SDS011;1986;52.546;13.428;2022-07-04T05:52:49;15.80;;;15.10;;
3943;SDS011;1986;52.546;13.428;2022-07-04T05:55:16;17.37;;;16.57;;
3943;SDS011;1986;52.546;13.428;2022-07-04T05:57:43;31.90;;;18.30;;
3943;SDS011;1986;52.546;13.428;2022-07-04T06:03:08;19.43;;;18.37;;
3943;SDS011;1986;52.546;13.428;2022-07-04T06:05:49;18.20;;;17.30;;
3943;SDS011;1986;52.546;13.428;2022-07-04T06:08:18;19.50;;;18.30;;
3943;SDS011;1986;52.546;13.428;2022-07-04T06:10:59;21.70;;;20.40;;
3943;SDS011;1986;52.546;13.428;2022-07-04T06:13:26;20.30;;;19.20;;
3943;SDS011;1986;52.546;13.428;2022-07-04T06:15:54;19.20;;;18.30;;
3943;SDS011;1986;52.546;13.428;2022-07-04T06:18:26;20.90;;;19.70;;
3943;SDS011;1986;52.546;13.428;2022-07-04T06:20:54;21.10;;;19.90;;
3943;SDS011;1986;52.546;13.428;2022-07-04T06:23:21;20.77;;;19.53;;
3943;SDS011;1986;52.546;13.428;2022-07-04T06:26:02;21.33;;;20.13;;
3943;SDS011;1986;52.546;13.428;2022-07-04T06:28:30;22.83;;;21.23;;
3943;SDS011;1986;52.546;13.428;2022-07-04T06:30:57;24.30;;;22.37;;
3943;SDS011;1986;52.546;13.428;2022-07-04T06:33:26;22.97;;;21.47;;
3943;SDS011;1986;52.546;13.428;2022-07-04T06:36:27;24.10;;;22.60;;
3943;SDS011;1986;52.546;13.428;2022-07-04T06:38:53;24.37;;;22.53;;
3943;SDS011;1986;52.546;13.428;2022-07-04T06:41:23;25.03;;;23.33;;
3943;SDS011;1986;52.546;13.428;2022-07-04T06:43:53;25.57;;;23.87;;
3943;SDS011;1986;52.546;13.428;2022-07-04T06:49:03;25.80;;;24.07;;
3943;SDS011;1986;52.546;13.428;2022-07-04T06:51:32;26.53;;;24.63;;
3943;SDS011;1986;52.546;13.428;2022-07-04T06:53:59;25.63;;;23.83;;
3943;SDS011;1986;52.546;13.428;2022-07-04T06:56:26;25.27;;;23.57;;
3943;SDS011;1986;52.546;13.428;2022-07-04T06:58:53;25.03;;;23.33;;
3943;SDS011;1986;52.546;13.428;2022-07-04T07:01:21;25.10;;;23.40;;
3943;SDS011;1986;52.546;13.428;2022-07-04T07:03:48;25.80;;;23.90;;
3943;SDS011;1986;52.546;13.428;2022-07-04T07:06:17;28.00;;;25.60;;
3943;SDS011;1986;52.546;13.428;2022-07-04T07:08:45;36.43;;;25.40;;
3943;SDS011;1986;52.546;13.428;2022-07-04T07:11:14;25.60;;;23.90;;
3943;SDS011;1986;52.546;13.428;2022-07-04T07:13:44;27.87;;;26.00;;
3943;SDS011;1986;52.546;13.428;2022-07-04T07:16:13;26.37;;;24.67;;
3943;SDS011;1986;52.546;13.428;2022-07-04T07:18:40;26.83;;;25.13;;
3943;SDS011;1986;52.546;13.428;2022-07-04T07:21:10;25.50;;;23.80;;
3943;SDS011;1986;52.546;13.428;2022-07-04T07:23:39;26.07;;;24.37;;
3943;SDS011;1986;52.546;13.428;2022-07-04T07:26:08;25.80;;;24.00;;
3943;SDS011;1986;52.546;13.428;2022-07-04T07:28:36;26.47;;;24.67;;
3943;SDS011;1986;52.546;13.428;2022-07-04T07:31:04;28.13;;;26.23;;
3943;SDS011;1986;52.546;13.428;2022-07-04T07:33:34;27.60;;;25.80;;
3943;SDS011;1986;52.546;13.428;2022-07-04T07:36:02;28.70;;;26.80;;
3943;SDS011;1986;52.546;13.428;2022-07-04T07:38:30;28.77;;;26.53;;
3943;SDS011;1986;52.546;13.428;2022-07-04T07:41:01;27.87;;;26.07;;
3943;SDS011;1986;52.546;13.428;2022-07-04T07:43:33;28.47;;;26.47;;
3943;SDS011;1986;52.546;13.428;2022-07-04T07:46:05;27.53;;;25.73;;
3943;SDS011;1986;52.546;13.428;2022-07-04T07:48:34;27.43;;;25.47;;
3943;SDS011;1986;52.546;13.428;2022-07-04T07:51:02;26.43;;;24.73;;
3943;SDS011;1986;52.546;13.428;2022-07-04T07:53:29;26.77;;;25.07;;
3943;SDS011;1986;52.546;13.428;2022-07-04T07:55:58;27.80;;;25.97;;
3943;SDS011;1986;52.546;13.428;2022-07-04T07:58:29;25.80;;;24.10;;
3943;SDS011;1986;52.546;13.428;2022-07-04T08:00:57;25.70;;;24.00;;
3943;SDS011;1986;52.546;13.428;2022-07-04T08:03:27;25.60;;;24.00;;
3943;SDS011;1986;52.546;13.428;2022-07-04T08:06:13;26.13;;;24.13;;
3943;SDS011;1986;52.546;13.428;2022-07-04T08:08:41;25.80;;;24.20;;
3943;SDS011;1986;52.546;13.428;2022-07-04T08:11:14;25.30;;;23.70;;
3943;SDS011;1986;52.546;13.428;2022-07-04T08:13:45;26.47;;;24.77;;
3943;SDS011;1986;52.546;13.428;2022-07-04T08:16:13;26.47;;;24.57;;
3943;SDS011;1986;52.546;13.428;2022-07-04T08:18:40;27.10;;;25.33;;
3943;SDS011;1986;52.546;13.428;2022-07-04T08:21:14;26.57;;;24.90;;
3943;SDS011;1986;52.546;13.428;2022-07-04T08:23:44;27.53;;;25.43;;
3943;SDS011;1986;52.546;13.428;2022-07-04T08:26:16;28.40;;;26.60;;
3943;SDS011;1986;52.546;13.428;2022-07-04T08:28:58;26.40;;;24.70;;
3943;SDS011;1986;52.546;13.428;2022-07-04T08:31:28;27.50;;;25.60;;
3943;SDS011;1986;52.546;13.428;2022-07-04T08:34:09;28.23;;;26.43;;
3943;SDS011;1986;52.546;13.428;2022-07-04T08:36:40;30.23;;;28.23;;
3943;SDS011;1986;52.546;13.428;2022-07-04T08:39:12;31.23;;;29.13;;
3943;SDS011;1986;52.546;13.428;2022-07-04T08:41:45;30.10;;;28.13;;
3943;SDS011;1986;52.546;13.428;2022-07-04T08:44:13;32.47;;;30.47;;
3943;SDS011;1986;52.546;13.428;2022-07-04T08:46:53;31.00;;;29.00;;
3943;SDS011;1986;52.546;13.428;2022-07-04T08:49:21;30.23;;;28.23;;
3943;SDS011;1986;52.546;13.428;2022-07-04T08:51:59;31.40;;;29.47;;
3943;SDS011;1986;52.546;13.428;2022-07-04T08:54:32;30.40;;;28.50;;
3943;SDS011;1986;52.546;13.428;2022-07-04T08:57:18;30.47;;;28.53;;
3943;SDS011;1986;52.546;13.428;2022-07-04T09:00:02;30.47;;;28.57;;
3943;SDS011;1986;52.546;13.428;2022-07-04T09:02:38;30.33;;;28.33;;
3943;SDS011;1986;52.546;13.428;2022-07-04T09:05:08;31.57;;;29.47;;
3943;SDS011;1986;52.546;13.428;2022-07-04T09:07:39;31.40;;;29.40;;
3943;SDS011;1986;52.546;13.428;2022-07-04T09:10:07;31.63;;;29.43;;
3943;SDS011;1986;52.546;13.428;2022-07-04T09:12:36;31.07;;;29.07;;
3943;SDS011;1986;52.546;13.428;2022-07-04T09:15:04;32.43;;;30.23;;
3943;SDS011;1986;52.546;13.428;2022-07-04T09:17:35;31.10;;;29.10;;
3943;SDS011;1986;52.546;13.428;2022-07-04T09:20:13;30.10;;;28.10;;
3943;SDS011;1986;52.546;13.428;2022-07-04T09:22:42;31.70;;;29.50;;
3943;SDS011;1986;52.546;13.428;2022-07-04T09:25:12;29.30;;;27.40;;
3943;SDS011;1986;52.546;13.428;2022-07-04T09:27:42;30.60;;;28.60;;
3943;SDS011;1986;52.546;13.428;2022-07-04T09:30:13;29.90;;;28.00;;
3943;SDS011;1986;52.546;13.428;2022-07-04T09:32:41;31.13;;;28.90;;
3943;SDS011;1986;52.546;13.428;2022-07-04T09:35:11;32.80;;;30.67;;
3943;SDS011;1986;52.546;13.428;2022-07-04T09:37:43;31.37;;;29.33;;
3943;SDS011;1986;52.546;13.428;2022-07-04T09:40:20;32.47;;;30.30;;
3943;SDS011;1986;52.546;13.428;2022-07-04T09:42:50;33.80;;;31.10;;
3943;SDS011;1986;52.546;13.428;2022-07-04T09:45:18;32.43;;;30.33;;
3943;SDS011;1986;52.546;13.428;2022-07-04T09:47:50;32.10;;;30.00;;
3943;SDS011;1986;52.546;13.428;2022-07-04T09:50:22;31.17;;;28.97;;
3943;SDS011;1986;52.546;13.428;2022-07-04T09:53:05;30.97;;;28.87;;
3943;SDS011;1986;52.546;13.428;2022-07-04T09:55:53;31.83;;;29.73;;
3943;SDS011;1986;52.546;13.428;2022-07-04T09:58:29;30.37;;;28.37;;
3943;SDS011;1986;52.546;13.428;2022-07-04T10:00:58;31.60;;;29.50;;
3943;SDS011;1986;52.546;13.428;2022-07-04T10:03:37;35.83;;;32.90;;
3943;SDS011;1986;52.546;13.428;2022-07-04T10:06:06;33.40;;;31.20;;
3943;SDS011;1986;52.546;13.428;2022-07-04T10:08:48;33.13;;;30.93;;
3943;SDS011;1986;52.546;13.428;2022-07-04T10:11:15;34.17;;;31.97;;
3943;SDS011;1986;52.546;13.428;2022-07-04T10:13:44;34.03;;;31.63;;
3943;SDS011;1986;52.546;13.428;2022-07-04T10:16:11;34.70;;;32.40;;
3943;SDS011;1986;52.546;13.428;2022-07-04T10:18:43;35.57;;;33.27;;
3943;SDS011;1986;52.546;13.428;2022-07-04T10:21:16;34.07;;;31.80;;
3943;SDS011;1986;52.546;13.428;2022-07-04T10:23:44;32.23;;;30.03;;
3943;SDS011;1986;52.546;13.428;2022-07-04T10:26:13;33.27;;;31.07;;
3943;SDS011;1986;52.546;13.428;2022-07-04T10:28:48;35.67;;;33.37;;
3943;SDS011;1986;52.546;13.428;2022-07-04T10:31:25;38.70;;;36.20;;
3943;SDS011;1986;52.546;13.428;2022-07-04T10:33:57;35.60;;;33.30;;
3943;SDS011;1986;52.546;13.428;2022-07-04T10:36:29;34.70;;;32.40;;
3943;SDS011;1986;52.546;13.428;2022-07-04T10:38:57;33.20;;;31.00;;
3943;SDS011;1986;52.546;13.428;2022-07-04T10:41:25;33.50;;;31.13;;
3943;SDS011;1986;52.546;13.428;2022-07-04T10:43:56;32.87;;;30.67;;
3943;SDS011;1986;52.546;13.428;2022-07-04T10:46:28;34.80;;;32.60;;
3943;SDS011;1986;52.546;13.428;2022-07-04T10:48:56;35.60;;;33.30;;
3943;SDS011;1986;52.546;13.428;2022-07-04T10:51:32;35.20;;;32.93;;
3943;SDS011;1986;52.546;13.428;2022-07-04T10:54:01;34.10;;;31.80;;
3943;SDS011;1986;52.546;13.428;2022-07-04T10:56:40;33.23;;;31.03;;
3943;SDS011;1986;52.546;13.428;2022-07-04T10:59:17;32.90;;;30.80;;
3943;SDS011;1986;52.546;13.428;2022-07-04T11:02:20;35.57;;;33.27;;
3943;SDS011;1986;52.546;13.428;2022-07-04T11:04:58;33.17;;;30.97;;
3943;SDS011;1986;52.546;13.428;2022-07-04T11:10:26;32.17;;;30.07;;
3943;SDS011;1986;52.546;13.428;2022-07-04T11:13:05;34.10;;;31.70;;
3943;SDS011;1986;52.546;13.428;2022-07-04T11:16:02;36.00;;;33.80;;
3943;SDS011;1986;52.546;13.428;2022-07-04T11:18:34;33.70;;;31.60;;
3943;SDS011;1986;52.546;13.428;2022-07-04T11:21:20;35.10;;;32.80;;
3943;SDS011;1986;52.546;13.428;2022-07-04T11:23:52;34.43;;;32.13;;
3943;SDS011;1986;52.546;13.428;2022-07-04T11:26:20;35.20;;;33.00;;
3943;SDS011;1986;52.546;13.428;2022-07-04T11:28:47;35.93;;;33.73;;
3943;SDS011;1986;52.546;13.428;2022-07-04T11:31:16;34.87;;;32.67;;
3943;SDS011;1986;52.546;13.428;2022-07-04T11:33:44;38.20;;;35.80;;
3943;SDS011;1986;52.546;13.428;2022-07-04T11:36:12;37.13;;;34.83;;
3943;SDS011;1986;52.546;13.428;2022-07-04T11:38:45;35.77;;;33.47;;
3943;SDS011;1986;52.546;13.428;2022-07-04T11:41:18;38.07;;;35.67;;
3943;SDS011;1986;52.546;13.428;2022-07-04T11:44:04;34.90;;;32.60;;
3943;SDS011;1986;52.546;13.428;2022-07-04T11:47:02;34.90;;;32.60;;
3943;SDS011;1986;52.546;13.428;2022-07-04T11:49:33;34.87;;;32.57;;
3943;SDS011;1986;52.546;13.428;2022-07-04T11:52:00;34.57;;;32.27;;
3943;SDS011;1986;52.546;13.428;2022-07-04T11:54:28;33.27;;;31.07;;
3943;SDS011;1986;52.546;13.428;2022-07-04T11:57:12;34.40;;;32.20;;
3943;SDS011;1986;52.546;13.428;2022-07-04T11:59:51;34.57;;;32.27;;
3943;SDS011;1986;52.546;13.428;2022-07-04T12:02:24;36.57;;;34.07;;
3943;SDS011;1986;52.546;13.428;2022-07-04T12:04:54;39.40;;;36.90;;
3943;SDS011;1986;52.546;13.428;2022-07-04T12:07:23;39.53;;;36.93;;
3943;SDS011;1986;52.546;13.428;2022-07-04T12:09:54;38.90;;;36.40;;
3943;SDS011;1986;52.546;13.428;2022-07-04T12:12:22;35.60;;;33.10;;
3943;SDS011;1986;52.546;13.428;2022-07-04T12:14:59;40.17;;;37.37;;
3943;SDS011;1986;52.546;13.428;2022-07-04T12:17:32;38.20;;;35.30;;
3943;SDS011;1986;52.546;13.428;2022-07-04T12:20:02;36.47;;;34.07;;
3943;SDS011;1986;52.546;13.428;2022-07-04T12:22:40;35.00;;;32.70;;
3943;SDS011;1986;52.546;13.428;2022-07-04T12:25:18;40.07;;;37.40;;
3943;SDS011;1986;52.546;13.428;2022-07-04T12:27:51;40.23;;;37.47;;
3943;SDS011;1986;52.546;13.428;2022-07-04T12:30:19;38.37;;;35.87;;
3943;SDS011;1986;52.546;13.428;2022-07-04T12:32:49;37.10;;;34.70;;
3943;SDS011;1986;52.546;13.428;2022-07-04T12:35:33;38.30;;;35.70;;
3943;SDS011;1986;52.546;13.428;2022-07-04T12:38:05;37.47;;;35.00;;
3943;SDS011;1986;52.546;13.428;2022-07-04T12:40:33;36.67;;;34.27;;
3943;SDS011;1986;52.546;13.428;2022-07-04T12:43:03;37.50;;;35.10;;
3943;SDS011;1986;52.546;13.428;2022-07-04T12:45:43;39.73;;;37.23;;
3943;SDS011;1986;52.546;13.428;2022-07-04T12:48:28;40.33;;;37.73;;
3943;SDS011;1986;52.546;13.428;2022-07-04T12:51:07;43.47;;;40.87;;
3943;SDS011;1986;52.546;13.428;2022-07-04T12:53:36;43.70;;;41.00;;
3943;SDS011;1986;52.546;13.428;2022-07-04T12:56:04;43.17;;;40.47;;
3943;SDS011;1986;52.546;13.428;2022-07-04T12:58:31;46.67;;;43.80;;
3943;SDS011;1986;52.546;13.428;2022-07-04T13:00:58;43.80;;;41.10;;
3943;SDS011;1986;52.546;13.428;2022-07-04T13:03:25;46.23;;;43.43;;
3943;SDS011;1986;52.546;13.428;2022-07-04T13:05:54;44.93;;;42.13;;
3943;SDS011;1986;52.546;13.428;2022-07-04T13:08:22;45.67;;;42.87;;
3943;SDS011;1986;52.546;13.428;2022-07-04T13:10:49;42.83;;;40.33;;
3943;SDS011;1986;52.546;13.428;2022-07-04T13:13:36;44.40;;;41.70;;
3943;SDS011;1986;52.546;13.428;2022-07-04T13:16:03;43.70;;;40.80;;
3943;SDS011;1986;52.546;13.428;2022-07-04T13:18:32;39.97;;;37.40;;
3943;SDS011;1986;52.546;13.428;2022-07-04T13:20:59;39.10;;;36.60;;
3943;SDS011;1986;52.546;13.428;2022-07-04T13:23:26;35.27;;;32.47;;
3943;SDS011;1986;52.546;13.428;2022-07-04T13:25:53;38.77;;;36.27;;
3943;SDS011;1986;52.546;13.428;2022-07-04T13:28:20;41.90;;;39.40;;
3943;SDS011;1986;52.546;13.428;2022-07-04T13:30:46;42.23;;;39.63;;
3943;SDS011;1986;52.546;13.428;2022-07-04T13:33:14;40.00;;;37.50;;
3943;SDS011;1986;52.546;13.428;2022-07-04T13:35:42;39.93;;;37.43;;
3943;SDS011;1986;52.546;13.428;2022-07-04T13:38:09;40.90;;;38.30;;
3943;SDS011;1986;52.546;13.428;2022-07-04T13:40:41;38.60;;;36.10;;
3943;SDS011;1986;52.546;13.428;2022-07-04T13:43:08;41.60;;;39.00;;
3943;SDS011;1986;52.546;13.428;2022-07-04T13:45:35;39.30;;;36.57;;
3943;SDS011;1986;52.546;13.428;2022-07-04T13:48:04;37.47;;;35.00;;
3943;SDS011;1986;52.546;13.428;2022-07-04T13:50:32;40.73;;;38.03;;
3943;SDS011;1986;52.546;13.428;2022-07-04T13:53:03;39.53;;;36.93;;
3943;SDS011;1986;52.546;13.428;2022-07-04T13:55:31;36.77;;;34.27;;
3943;SDS011;1986;52.546;13.428;2022-07-04T13:57:59;39.57;;;36.97;;
3943;SDS011;1986;52.546;13.428;2022-07-04T14:00:27;38.67;;;36.07;;
3943;SDS011;1986;52.546;13.428;2022-07-04T14:02:55;38.10;;;35.60;;
3943;SDS011;1986;52.546;13.428;2022-07-04T14:05:21;36.67;;;34.17;;
3943;SDS011;1986;52.546;13.428;2022-07-04T14:07:49;35.83;;;33.43;;
3943;SDS011;1986;52.546;13.428;2022-07-04T14:10:27;38.30;;;35.33;;
3943;SDS011;1986;52.546;13.428;2022-07-04T14:12:54;37.57;;;35.07;;
3943;SDS011;1986;52.546;13.428;2022-07-04T14:15:23;41.60;;;38.90;;
3943;SDS011;1986;52.546;13.428;2022-07-04T14:17:50;42.00;;;39.30;;
3943;SDS011;1986;52.546;13.428;2022-07-04T14:20:17;38.37;;;35.87;;
3943;SDS011;1986;52.546;13.428;2022-07-04T14:22:44;40.27;;;37.67;;
3943;SDS011;1986;52.546;13.428;2022-07-04T14:25:14;42.87;;;40.17;;
3943;SDS011;1986;52.546;13.428;2022-07-04T14:27:42;42.13;;;39.53;;
3943;SDS011;1986;52.546;13.428;2022-07-04T14:30:10;39.40;;;36.90;;
3943;SDS011;1986;52.546;13.428;2022-07-04T14:32:37;39.67;;;37.17;;
3943;SDS011;1986;52.546;13.428;2022-07-04T14:35:04;38.73;;;36.23;;
3943;SDS011;1986;52.546;13.428;2022-07-04T14:37:32;45.07;;;42.10;;
3943;SDS011;1986;52.546;13.428;2022-07-04T14:39:58;39.40;;;36.70;;
3943;SDS011;1986;52.546;13.428;2022-07-04T14:42:25;45.80;;;42.77;;
3943;SDS011;1986;52.546;13.428;2022-07-04T14:44:54;43.87;;;40.97;;
3943;SDS011;1986;52.546;13.428;2022-07-04T14:47:20;40.47;;;37.77;;
3943;SDS011;1986;52.546;13.428;2022-07-04T14:49:49;39.83;;;37.23;;
3943;SDS011;1986;52.546;13.428;2022-07-04T14:52:16;42.90;;;40.17;;
3943;SDS011;1986;52.546;13.428;2022-07-04T14:54:43;44.00;;;41.30;;
3943;SDS011;1986;52.546;13.428;2022-07-04T14:57:10;42.70;;;39.90;;
3943;SDS011;1986;52.546;13.428;2022-07-04T14:59:38;43.43;;;40.73;;
3943;SDS011;1986;52.546;13.428;2022-07-04T15:02:07;42.00;;;39.30;;